sensor_id;sensor_type;location;lat;lon;timestamp;P1;durP1;ratioP1;P2;durP2;ratioP2
2474;SDS011;1248;48.694;10.160;2023-05-10T00:01:53;12.70;;;9.60;;
2474;SDS011;1248;48.694;10.160;2023-05-10T00:04:21;12.10;;;10.20;;
2474;SDS011;1248;48.694;10.160;2023-05-10T00:06:48;12.70;;;9.53;;
2474;SDS011;1248;48.694;10.160;2023-05-10T00:09:15;11.67;;;10.30;;
2474;SDS011;1248;48.694;10.160;2023-05-10T00:11:42;13.37;;;10.93;;
2474;SDS011;1248;48.694;10.160;2023-05-10T00:14:09;16.37;;;11.70;;
2474;SDS011;1248;48.694;10.160;2023-05-10T00:16:36;17.03;;;11.63;;
2474;SDS011;1248;48.694;10.160;2023-05-10T00:19:04;15.37;;;11.40;;
2474;SDS011;1248;48.694;10.160;2023-05-10T00:21:31;15.10;;;12.90;;
2474;SDS011;1248;48.694;10.160;2023-05-10T00:23:59;15.17;;;11.70;;
2474;SDS011;1248;48.694;10.160;2023-05-10T00:26:26;15.40;;;12.20;;
2474;SDS011;1248;48.694;10.160;2023-05-10T00:28:53;16.60;;;11.73;;
2474;SDS011;1248;48.694;10.160;2023-05-10T00:31:20;15.53;;;12.30;;
2474;SDS011;1248;48.694;10.160;2023-05-10T00:33:47;14.47;;;11.93;;
2474;SDS011;1248;48.694;10.160;2023-05-10T00:36:15;17.43;;;13.63;;
2474;SDS011;1248;48.694;10.160;2023-05-10T00:38:42;17.87;;;13.77;;
2474;SDS011;1248;48.694;10.160;2023-05-10T00:41:09;18.97;;;13.77;;
2474;SDS011;1248;48.694;10.160;2023-05-10T00:43:36;18.70;;;13.80;;
2474;SDS011;1248;48.694;10.160;2023-05-10T00:46:03;15.33;;;12.80;;
2474;SDS011;1248;48.694;10.160;2023-05-10T00:48:30;17.67;;;13.13;;
2474;SDS011;1248;48.694;10.160;2023-05-10T00:50:58;22.67;;;15.17;;
2474;SDS011;1248;48.694;10.160;2023-05-10T00:53:27;20.17;;;15.13;;
2474;SDS011;1248;48.694;10.160;2023-05-10T00:55:54;18.17;;;13.60;;
2474;SDS011;1248;48.694;10.160;2023-05-10T00:58:21;17.23;;;12.10;;
2474;SDS011;1248;48.694;10.160;2023-05-10T01:00:49;16.70;;;11.13;;
2474;SDS011;1248;48.694;10.160;2023-05-10T01:03:17;12.93;;;11.50;;
2474;SDS011;1248;48.694;10.160;2023-05-10T01:05:44;15.37;;;11.97;;
2474;SDS011;1248;48.694;10.160;2023-05-10T01:08:11;12.37;;;10.53;;
2474;SDS011;1248;48.694;10.160;2023-05-10T01:10:40;13.10;;;10.60;;
2474;SDS011;1248;48.694;10.160;2023-05-10T01:13:07;9.43;;;8.17;;
2474;SDS011;1248;48.694;10.160;2023-05-10T01:15:34;9.90;;;8.30;;
2474;SDS011;1248;48.694;10.160;2023-05-10T01:18:02;5.77;;;5.20;;
2474;SDS011;1248;48.694;10.160;2023-05-10T01:20:32;9.10;;;5.17;;
2474;SDS011;1248;48.694;10.160;2023-05-10T01:26:19;6.33;;;4.30;;
2474;SDS011;1248;48.694;10.160;2023-05-10T01:32:04;4.23;;;3.60;;
2474;SDS011;1248;48.694;10.160;2023-05-10T01:34:39;3.23;;;2.93;;
2474;SDS011;1248;48.694;10.160;2023-05-10T01:37:11;2.87;;;2.50;;
2474;SDS011;1248;48.694;10.160;2023-05-10T01:39:43;3.27;;;2.80;;
2474;SDS011;1248;48.694;10.160;2023-05-10T01:42:14;3.10;;;2.20;;
2474;SDS011;1248;48.694;10.160;2023-05-10T01:44:46;1.93;;;1.70;;
2474;SDS011;1248;48.694;10.160;2023-05-10T01:47:19;1.40;;;1.30;;
2474;SDS011;1248;48.694;10.160;2023-05-10T01:49:52;6.03;;;1.80;;
2474;SDS011;1248;48.694;10.160;2023-05-10T01:52:22;2.07;;;1.30;;
2474;SDS011;1248;48.694;10.160;2023-05-10T01:54:54;1.53;;;1.10;;
2474;SDS011;1248;48.694;10.160;2023-05-10T01:57:22;1.13;;;0.97;;
2474;SDS011;1248;48.694;10.160;2023-05-10T01:59:52;6.77;;;1.00;;
2474;SDS011;1248;48.694;10.160;2023-05-10T02:02:22;1.37;;;0.90;;
2474;SDS011;1248;48.694;10.160;2023-05-10T02:04:50;1.07;;;0.90;;
2474;SDS011;1248;48.694;10.160;2023-05-10T02:07:18;1.87;;;0.73;;
2474;SDS011;1248;48.694;10.160;2023-05-10T02:09:45;1.00;;;0.80;;
2474;SDS011;1248;48.694;10.160;2023-05-10T02:12:13;1.00;;;0.80;;
2474;SDS011;1248;48.694;10.160;2023-05-10T02:14:40;0.90;;;0.70;;
2474;SDS011;1248;48.694;10.160;2023-05-10T02:17:08;1.37;;;0.93;;
2474;SDS011;1248;48.694;10.160;2023-05-10T02:19:37;3.10;;;0.80;;
2474;SDS011;1248;48.694;10.160;2023-05-10T02:22:05;2.40;;;0.80;;
2474;SDS011;1248;48.694;10.160;2023-05-10T02:24:33;1.20;;;0.80;;
2474;SDS011;1248;48.694;10.160;2023-05-10T02:27:01;0.90;;;0.70;;
2474;SDS011;1248;48.694;10.160;2023-05-10T02:29:29;1.20;;;0.70;;
2474;SDS011;1248;48.694;10.160;2023-05-10T02:31:57;1.40;;;0.80;;
2474;SDS011;1248;48.694;10.160;2023-05-10T02:34:25;1.00;;;0.70;;
2474;SDS011;1248;48.694;10.160;2023-05-10T02:36:54;1.20;;;0.70;;
2474;SDS011;1248;48.694;10.160;2023-05-10T02:39:22;1.77;;;0.70;;
2474;SDS011;1248;48.694;10.160;2023-05-10T02:41:49;1.83;;;0.80;;
2474;SDS011;1248;48.694;10.160;2023-05-10T02:44:17;2.27;;;1.23;;
2474;SDS011;1248;48.694;10.160;2023-05-10T02:46:45;1.20;;;0.87;;
2474;SDS011;1248;48.694;10.160;2023-05-10T02:49:13;1.03;;;0.80;;
2474;SDS011;1248;48.694;10.160;2023-05-10T02:51:42;1.00;;;0.70;;
2474;SDS011;1248;48.694;10.160;2023-05-10T02:54:15;2.30;;;0.70;;
2474;SDS011;1248;48.694;10.160;2023-05-10T02:56:47;1.53;;;0.80;;
2474;SDS011;1248;48.694;10.160;2023-05-10T02:59:14;0.90;;;0.80;;
2474;SDS011;1248;48.694;10.160;2023-05-10T03:01:41;0.97;;;0.80;;
2474;SDS011;1248;48.694;10.160;2023-05-10T03:04:08;0.90;;;0.70;;
2474;SDS011;1248;48.694;10.160;2023-05-10T03:06:35;1.70;;;0.80;;
2474;SDS011;1248;48.694;10.160;2023-05-10T03:09:02;1.20;;;0.90;;
2474;SDS011;1248;48.694;10.160;2023-05-10T03:11:37;2.03;;;0.90;;
2474;SDS011;1248;48.694;10.160;2023-05-10T03:14:13;2.43;;;1.00;;
2474;SDS011;1248;48.694;10.160;2023-05-10T03:16:47;1.37;;;0.90;;
2474;SDS011;1248;48.694;10.160;2023-05-10T03:19:21;1.73;;;1.27;;
2474;SDS011;1248;48.694;10.160;2023-05-10T03:21:52;1.20;;;1.10;;
2474;SDS011;1248;48.694;10.160;2023-05-10T03:24:20;1.60;;;1.50;;
2474;SDS011;1248;48.694;10.160;2023-05-10T03:26:50;1.10;;;1.00;;
2474;SDS011;1248;48.694;10.160;2023-05-10T03:29:18;9.13;;;1.40;;
2474;SDS011;1248;48.694;10.160;2023-05-10T03:31:45;2.07;;;1.07;;
2474;SDS011;1248;48.694;10.160;2023-05-10T03:34:13;2.40;;;1.00;;
2474;SDS011;1248;48.694;10.160;2023-05-10T03:36:40;2.00;;;1.10;;
2474;SDS011;1248;48.694;10.160;2023-05-10T03:39:07;1.30;;;1.20;;
2474;SDS011;1248;48.694;10.160;2023-05-10T03:41:34;2.77;;;1.30;;
2474;SDS011;1248;48.694;10.160;2023-05-10T03:44:02;1.20;;;1.10;;
2474;SDS011;1248;48.694;10.160;2023-05-10T03:46:30;1.30;;;1.10;;
2474;SDS011;1248;48.694;10.160;2023-05-10T03:48:57;1.93;;;1.13;;
2474;SDS011;1248;48.694;10.160;2023-05-10T03:51:24;1.37;;;1.00;;
2474;SDS011;1248;48.694;10.160;2023-05-10T03:53:53;1.20;;;1.10;;
2474;SDS011;1248;48.694;10.160;2023-05-10T03:56:20;5.23;;;1.40;;
2474;SDS011;1248;48.694;10.160;2023-05-10T03:58:47;2.00;;;1.13;;
2474;SDS011;1248;48.694;10.160;2023-05-10T04:01:15;2.10;;;1.10;;
2474;SDS011;1248;48.694;10.160;2023-05-10T04:03:42;3.33;;;1.20;;
2474;SDS011;1248;48.694;10.160;2023-05-10T04:06:10;1.60;;;1.30;;
2474;SDS011;1248;48.694;10.160;2023-05-10T04:08:37;2.63;;;1.63;;
2474;SDS011;1248;48.694;10.160;2023-05-10T04:11:04;1.80;;;1.30;;
2474;SDS011;1248;48.694;10.160;2023-05-10T04:13:33;2.00;;;1.57;;
2474;SDS011;1248;48.694;10.160;2023-05-10T04:16:00;4.50;;;1.60;;
2474;SDS011;1248;48.694;10.160;2023-05-10T04:18:28;1.80;;;1.70;;
2474;SDS011;1248;48.694;10.160;2023-05-10T04:20:56;2.23;;;1.87;;
2474;SDS011;1248;48.694;10.160;2023-05-10T04:23:24;1.60;;;1.50;;
2474;SDS011;1248;48.694;10.160;2023-05-10T04:25:51;1.63;;;1.53;;
2474;SDS011;1248;48.694;10.160;2023-05-10T04:28:18;1.80;;;1.43;;
2474;SDS011;1248;48.694;10.160;2023-05-10T04:30:45;4.00;;;1.80;;
2474;SDS011;1248;48.694;10.160;2023-05-10T04:33:12;2.50;;;1.40;;
2474;SDS011;1248;48.694;10.160;2023-05-10T04:35:41;4.70;;;1.40;;
2474;SDS011;1248;48.694;10.160;2023-05-10T04:38:08;3.67;;;1.43;;
2474;SDS011;1248;48.694;10.160;2023-05-10T04:40:35;2.43;;;1.40;;
2474;SDS011;1248;48.694;10.160;2023-05-10T04:43:02;1.40;;;1.30;;
2474;SDS011;1248;48.694;10.160;2023-05-10T04:45:29;2.70;;;1.30;;
2474;SDS011;1248;48.694;10.160;2023-05-10T04:47:56;1.80;;;1.50;;
2474;SDS011;1248;48.694;10.160;2023-05-10T04:50:23;1.37;;;1.27;;
2474;SDS011;1248;48.694;10.160;2023-05-10T04:52:51;2.23;;;1.40;;
2474;SDS011;1248;48.694;10.160;2023-05-10T04:55:18;3.10;;;1.30;;
2474;SDS011;1248;48.694;10.160;2023-05-10T04:57:45;1.87;;;1.53;;
2474;SDS011;1248;48.694;10.160;2023-05-10T05:00:13;2.23;;;1.37;;
2474;SDS011;1248;48.694;10.160;2023-05-10T05:02:42;2.00;;;1.47;;
2474;SDS011;1248;48.694;10.160;2023-05-10T05:05:09;1.77;;;1.37;;
2474;SDS011;1248;48.694;10.160;2023-05-10T05:07:36;1.40;;;1.30;;
2474;SDS011;1248;48.694;10.160;2023-05-10T05:10:06;1.57;;;1.47;;
2474;SDS011;1248;48.694;10.160;2023-05-10T05:12:33;1.70;;;1.60;;
2474;SDS011;1248;48.694;10.160;2023-05-10T05:15:01;1.33;;;1.23;;
2474;SDS011;1248;48.694;10.160;2023-05-10T05:17:29;2.70;;;1.57;;
2474;SDS011;1248;48.694;10.160;2023-05-10T05:19:57;1.87;;;1.40;;
2474;SDS011;1248;48.694;10.160;2023-05-10T05:22:24;1.93;;;1.07;;
2474;SDS011;1248;48.694;10.160;2023-05-10T05:24:53;2.20;;;1.33;;
2474;SDS011;1248;48.694;10.160;2023-05-10T05:27:21;3.10;;;1.20;;
2474;SDS011;1248;48.694;10.160;2023-05-10T05:29:49;1.80;;;1.37;;
2474;SDS011;1248;48.694;10.160;2023-05-10T05:32:17;1.60;;;1.50;;
2474;SDS011;1248;48.694;10.160;2023-05-10T05:34:44;1.63;;;1.30;;
2474;SDS011;1248;48.694;10.160;2023-05-10T05:37:12;1.30;;;1.20;;
2474;SDS011;1248;48.694;10.160;2023-05-10T05:39:39;1.43;;;1.30;;
2474;SDS011;1248;48.694;10.160;2023-05-10T05:42:06;2.23;;;1.60;;
2474;SDS011;1248;48.694;10.160;2023-05-10T05:44:35;3.03;;;1.80;;
2474;SDS011;1248;48.694;10.160;2023-05-10T05:47:02;2.10;;;1.60;;
2474;SDS011;1248;48.694;10.160;2023-05-10T05:49:29;1.73;;;1.63;;
2474;SDS011;1248;48.694;10.160;2023-05-10T05:51:58;2.20;;;1.47;;
2474;SDS011;1248;48.694;10.160;2023-05-10T05:54:26;1.50;;;1.40;;
2474;SDS011;1248;48.694;10.160;2023-05-10T05:56:53;1.60;;;1.30;;
2474;SDS011;1248;48.694;10.160;2023-05-10T05:59:20;4.43;;;1.60;;
2474;SDS011;1248;48.694;10.160;2023-05-10T06:01:49;2.23;;;1.77;;
2474;SDS011;1248;48.694;10.160;2023-05-10T06:04:16;2.60;;;1.30;;
2474;SDS011;1248;48.694;10.160;2023-05-10T06:06:43;2.37;;;1.20;;
2474;SDS011;1248;48.694;10.160;2023-05-10T06:09:11;3.43;;;1.70;;
2474;SDS011;1248;48.694;10.160;2023-05-10T06:11:38;4.13;;;1.50;;
2474;SDS011;1248;48.694;10.160;2023-05-10T06:14:05;5.73;;;1.43;;
2474;SDS011;1248;48.694;10.160;2023-05-10T06:16:32;2.60;;;1.70;;
2474;SDS011;1248;48.694;10.160;2023-05-10T06:19:01;2.13;;;1.20;;
2474;SDS011;1248;48.694;10.160;2023-05-10T06:21:28;1.77;;;1.67;;
2474;SDS011;1248;48.694;10.160;2023-05-10T06:23:55;2.80;;;1.40;;
2474;SDS011;1248;48.694;10.160;2023-05-10T06:26:22;3.73;;;1.40;;
2474;SDS011;1248;48.694;10.160;2023-05-10T06:28:50;1.93;;;1.30;;
2474;SDS011;1248;48.694;10.160;2023-05-10T06:31:17;1.83;;;1.30;;
2474;SDS011;1248;48.694;10.160;2023-05-10T06:33:44;2.10;;;1.37;;
2474;SDS011;1248;48.694;10.160;2023-05-10T06:36:12;1.23;;;1.13;;
2474;SDS011;1248;48.694;10.160;2023-05-10T06:38:40;4.53;;;1.27;;
2474;SDS011;1248;48.694;10.160;2023-05-10T06:41:07;1.63;;;1.30;;
2474;SDS011;1248;48.694;10.160;2023-05-10T06:43:34;2.07;;;1.40;;
2474;SDS011;1248;48.694;10.160;2023-05-10T06:46:02;1.97;;;1.20;;
2474;SDS011;1248;48.694;10.160;2023-05-10T06:48:29;1.30;;;1.10;;
2474;SDS011;1248;48.694;10.160;2023-05-10T06:50:56;1.27;;;1.07;;
2474;SDS011;1248;48.694;10.160;2023-05-10T06:53:24;1.40;;;1.30;;
2474;SDS011;1248;48.694;10.160;2023-05-10T06:55:51;2.27;;;1.50;;
2474;SDS011;1248;48.694;10.160;2023-05-10T06:58:18;3.77;;;1.10;;
2474;SDS011;1248;48.694;10.160;2023-05-10T07:00:45;3.57;;;1.13;;
2474;SDS011;1248;48.694;10.160;2023-05-10T07:03:12;4.03;;;1.30;;
2474;SDS011;1248;48.694;10.160;2023-05-10T07:05:39;1.33;;;1.23;;
2474;SDS011;1248;48.694;10.160;2023-05-10T07:08:06;1.63;;;1.40;;
2474;SDS011;1248;48.694;10.160;2023-05-10T07:10:35;3.33;;;1.30;;
2474;SDS011;1248;48.694;10.160;2023-05-10T07:13:02;1.50;;;1.40;;
2474;SDS011;1248;48.694;10.160;2023-05-10T07:15:29;3.90;;;1.20;;
2474;SDS011;1248;48.694;10.160;2023-05-10T07:17:56;2.30;;;1.30;;
2474;SDS011;1248;48.694;10.160;2023-05-10T07:20:23;9.93;;;1.90;;
2474;SDS011;1248;48.694;10.160;2023-05-10T07:22:50;2.23;;;1.30;;
2474;SDS011;1248;48.694;10.160;2023-05-10T07:25:17;3.57;;;1.27;;
2474;SDS011;1248;48.694;10.160;2023-05-10T07:27:45;1.80;;;1.60;;
2474;SDS011;1248;48.694;10.160;2023-05-10T07:30:14;1.40;;;1.23;;
2474;SDS011;1248;48.694;10.160;2023-05-10T07:32:41;4.43;;;1.30;;
2474;SDS011;1248;48.694;10.160;2023-05-10T07:35:08;2.83;;;1.30;;
2474;SDS011;1248;48.694;10.160;2023-05-10T07:37:35;3.83;;;1.40;;
2474;SDS011;1248;48.694;10.160;2023-05-10T07:40:02;2.20;;;1.63;;
2474;SDS011;1248;48.694;10.160;2023-05-10T07:42:30;2.50;;;1.23;;
2474;SDS011;1248;48.694;10.160;2023-05-10T07:44:58;2.20;;;1.50;;
2474;SDS011;1248;48.694;10.160;2023-05-10T07:47:25;2.87;;;1.40;;
2474;SDS011;1248;48.694;10.160;2023-05-10T07:49:52;1.40;;;1.30;;
2474;SDS011;1248;48.694;10.160;2023-05-10T07:52:19;2.07;;;1.27;;
2474;SDS011;1248;48.694;10.160;2023-05-10T07:54:46;3.10;;;1.80;;
2474;SDS011;1248;48.694;10.160;2023-05-10T07:57:13;5.77;;;1.30;;
2474;SDS011;1248;48.694;10.160;2023-05-10T07:59:43;1.70;;;1.10;;
2474;SDS011;1248;48.694;10.160;2023-05-10T08:02:12;4.03;;;1.40;;
2474;SDS011;1248;48.694;10.160;2023-05-10T08:04:39;2.60;;;1.57;;
2474;SDS011;1248;48.694;10.160;2023-05-10T08:07:06;2.30;;;1.50;;
2474;SDS011;1248;48.694;10.160;2023-05-10T08:09:33;2.33;;;1.30;;
2474;SDS011;1248;48.694;10.160;2023-05-10T08:12:00;1.70;;;1.27;;
2474;SDS011;1248;48.694;10.160;2023-05-10T08:14:27;1.43;;;1.20;;
2474;SDS011;1248;48.694;10.160;2023-05-10T08:16:55;3.57;;;1.90;;
2474;SDS011;1248;48.694;10.160;2023-05-10T08:19:23;1.53;;;1.43;;
2474;SDS011;1248;48.694;10.160;2023-05-10T08:21:50;2.63;;;1.30;;
2474;SDS011;1248;48.694;10.160;2023-05-10T08:24:18;1.40;;;1.17;;
2474;SDS011;1248;48.694;10.160;2023-05-10T08:26:45;2.50;;;1.23;;
2474;SDS011;1248;48.694;10.160;2023-05-10T08:29:13;1.60;;;1.50;;
2474;SDS011;1248;48.694;10.160;2023-05-10T08:31:40;3.00;;;1.37;;
2474;SDS011;1248;48.694;10.160;2023-05-10T08:34:07;1.50;;;1.10;;
2474;SDS011;1248;48.694;10.160;2023-05-10T08:39:03;3.00;;;1.60;;
2474;SDS011;1248;48.694;10.160;2023-05-10T08:41:31;1.50;;;1.30;;
2474;SDS011;1248;48.694;10.160;2023-05-10T08:44:00;1.50;;;1.37;;
2474;SDS011;1248;48.694;10.160;2023-05-10T08:46:29;1.30;;;1.20;;
2474;SDS011;1248;48.694;10.160;2023-05-10T08:48:58;2.50;;;1.37;;
2474;SDS011;1248;48.694;10.160;2023-05-10T08:51:26;2.70;;;1.13;;
2474;SDS011;1248;48.694;10.160;2023-05-10T08:53:55;1.30;;;1.20;;
2474;SDS011;1248;48.694;10.160;2023-05-10T08:56:22;1.52;;;1.40;;
2474;SDS011;1248;48.694;10.160;2023-05-10T08:58:49;1.40;;;1.30;;
2474;SDS011;1248;48.694;10.160;2023-05-10T09:01:17;1.50;;;1.30;;
2474;SDS011;1248;48.694;10.160;2023-05-10T09:03:45;1.93;;;1.60;;
2474;SDS011;1248;48.694;10.160;2023-05-10T09:06:12;2.70;;;1.27;;
2474;SDS011;1248;48.694;10.160;2023-05-10T09:08:40;1.87;;;1.30;;
2474;SDS011;1248;48.694;10.160;2023-05-10T09:11:09;1.10;;;1.00;;
2474;SDS011;1248;48.694;10.160;2023-05-10T09:13:38;1.97;;;1.40;;
2474;SDS011;1248;48.694;10.160;2023-05-10T09:16:05;4.03;;;1.30;;
2474;SDS011;1248;48.694;10.160;2023-05-10T09:18:32;4.10;;;1.10;;
2474;SDS011;1248;48.694;10.160;2023-05-10T09:20:59;1.53;;;1.30;;
2474;SDS011;1248;48.694;10.160;2023-05-10T09:23:26;2.90;;;1.50;;
2474;SDS011;1248;48.694;10.160;2023-05-10T09:26:03;2.57;;;1.30;;
2474;SDS011;1248;48.694;10.160;2023-05-10T09:28:33;4.80;;;1.20;;
2474;SDS011;1248;48.694;10.160;2023-05-10T09:31:00;1.33;;;1.03;;
2474;SDS011;1248;48.694;10.160;2023-05-10T09:33:27;2.10;;;1.20;;
2474;SDS011;1248;48.694;10.160;2023-05-10T09:35:54;1.70;;;1.07;;
2474;SDS011;1248;48.694;10.160;2023-05-10T09:38:21;1.67;;;1.23;;
2474;SDS011;1248;48.694;10.160;2023-05-10T09:40:52;2.07;;;0.90;;
2474;SDS011;1248;48.694;10.160;2023-05-10T09:43:20;1.03;;;0.90;;
2474;SDS011;1248;48.694;10.160;2023-05-10T09:45:49;1.77;;;1.13;;
2474;SDS011;1248;48.694;10.160;2023-05-10T09:48:16;3.70;;;1.00;;
2474;SDS011;1248;48.694;10.160;2023-05-10T09:50:43;1.20;;;1.00;;
2474;SDS011;1248;48.694;10.160;2023-05-10T09:53:10;3.30;;;0.90;;
2474;SDS011;1248;48.694;10.160;2023-05-10T09:55:41;1.07;;;0.93;;
2474;SDS011;1248;48.694;10.160;2023-05-10T09:58:11;1.77;;;1.10;;
2474;SDS011;1248;48.694;10.160;2023-05-10T10:00:40;1.20;;;1.00;;
2474;SDS011;1248;48.694;10.160;2023-05-10T10:03:13;2.40;;;0.80;;
2474;SDS011;1248;48.694;10.160;2023-05-10T10:05:41;1.47;;;0.90;;
2474;SDS011;1248;48.694;10.160;2023-05-10T10:08:09;1.00;;;0.83;;
2474;SDS011;1248;48.694;10.160;2023-05-10T10:10:36;1.27;;;1.10;;
2474;SDS011;1248;48.694;10.160;2023-05-10T10:13:04;2.33;;;0.80;;
2474;SDS011;1248;48.694;10.160;2023-05-10T10:15:31;1.10;;;0.97;;
2474;SDS011;1248;48.694;10.160;2023-05-10T10:17:59;2.27;;;1.30;;
2474;SDS011;1248;48.694;10.160;2023-05-10T10:20:28;1.17;;;1.07;;
2474;SDS011;1248;48.694;10.160;2023-05-10T10:22:55;1.37;;;0.97;;
2474;SDS011;1248;48.694;10.160;2023-05-10T10:25:22;1.40;;;0.97;;
2474;SDS011;1248;48.694;10.160;2023-05-10T10:27:55;2.70;;;1.40;;
2474;SDS011;1248;48.694;10.160;2023-05-10T10:30:29;1.37;;;1.00;;
2474;SDS011;1248;48.694;10.160;2023-05-10T10:33:10;2.07;;;1.10;;
2474;SDS011;1248;48.694;10.160;2023-05-10T10:35:46;1.40;;;1.00;;
2474;SDS011;1248;48.694;10.160;2023-05-10T10:38:13;2.07;;;1.00;;
2474;SDS011;1248;48.694;10.160;2023-05-10T10:40:40;1.73;;;1.07;;
2474;SDS011;1248;48.694;10.160;2023-05-10T10:43:23;2.40;;;0.90;;
2474;SDS011;1248;48.694;10.160;2023-05-10T10:48:36;1.20;;;0.90;;
2474;SDS011;1248;48.694;10.160;2023-05-10T10:51:05;3.20;;;1.10;;
2474;SDS011;1248;48.694;10.160;2023-05-10T10:53:32;2.00;;;1.10;;
2474;SDS011;1248;48.694;10.160;2023-05-10T10:56:04;3.10;;;1.00;;
2474;SDS011;1248;48.694;10.160;2023-05-10T10:58:34;1.20;;;1.00;;
2474;SDS011;1248;48.694;10.160;2023-05-10T11:01:12;4.22;;;1.13;;
2474;SDS011;1248;48.694;10.160;2023-05-10T11:03:40;1.40;;;1.10;;
2474;SDS011;1248;48.694;10.160;2023-05-10T11:06:09;1.17;;;1.07;;
2474;SDS011;1248;48.694;10.160;2023-05-10T11:08:41;2.37;;;1.00;;
2474;SDS011;1248;48.694;10.160;2023-05-10T11:11:09;1.10;;;0.87;;
2474;SDS011;1248;48.694;10.160;2023-05-10T11:13:40;1.60;;;1.13;;
2474;SDS011;1248;48.694;10.160;2023-05-10T11:16:12;2.43;;;1.07;;
2474;SDS011;1248;48.694;10.160;2023-05-10T11:18:44;1.73;;;1.10;;
2474;SDS011;1248;48.694;10.160;2023-05-10T11:21:20;1.37;;;1.10;;
2474;SDS011;1248;48.694;10.160;2023-05-10T11:23:48;3.27;;;1.33;;
2474;SDS011;1248;48.694;10.160;2023-05-10T11:26:16;2.00;;;0.80;;
2474;SDS011;1248;48.694;10.160;2023-05-10T11:28:43;1.83;;;0.90;;
2474;SDS011;1248;48.694;10.160;2023-05-10T11:31:10;2.60;;;1.10;;
2474;SDS011;1248;48.694;10.160;2023-05-10T11:33:42;2.33;;;1.10;;
2474;SDS011;1248;48.694;10.160;2023-05-10T11:36:10;4.20;;;1.20;;
2474;SDS011;1248;48.694;10.160;2023-05-10T11:38:39;3.10;;;1.00;;
2474;SDS011;1248;48.694;10.160;2023-05-10T11:41:07;1.10;;;1.00;;
2474;SDS011;1248;48.694;10.160;2023-05-10T11:43:34;2.03;;;1.30;;
2474;SDS011;1248;48.694;10.160;2023-05-10T11:46:04;1.30;;;1.13;;
2474;SDS011;1248;48.694;10.160;2023-05-10T11:48:31;1.00;;;0.87;;
2474;SDS011;1248;48.694;10.160;2023-05-10T11:50:58;1.50;;;0.90;;
2474;SDS011;1248;48.694;10.160;2023-05-10T11:53:25;1.40;;;0.90;;
2474;SDS011;1248;48.694;10.160;2023-05-10T11:55:54;1.50;;;1.00;;
2474;SDS011;1248;48.694;10.160;2023-05-10T11:58:21;3.63;;;1.10;;
2474;SDS011;1248;48.694;10.160;2023-05-10T12:00:48;1.17;;;0.90;;
2474;SDS011;1248;48.694;10.160;2023-05-10T12:03:16;3.33;;;1.10;;
2474;SDS011;1248;48.694;10.160;2023-05-10T12:05:43;2.90;;;0.97;;
2474;SDS011;1248;48.694;10.160;2023-05-10T12:08:11;2.00;;;1.10;;
2474;SDS011;1248;48.694;10.160;2023-05-10T12:10:39;2.13;;;0.93;;
2474;SDS011;1248;48.694;10.160;2023-05-10T12:13:11;1.60;;;0.90;;
2474;SDS011;1248;48.694;10.160;2023-05-10T12:15:39;3.20;;;0.90;;
2474;SDS011;1248;48.694;10.160;2023-05-10T12:18:07;1.20;;;0.80;;
2474;SDS011;1248;48.694;10.160;2023-05-10T12:20:35;1.73;;;1.00;;
2474;SDS011;1248;48.694;10.160;2023-05-10T12:23:03;1.63;;;0.90;;
2474;SDS011;1248;48.694;10.160;2023-05-10T12:25:31;5.90;;;1.40;;
2474;SDS011;1248;48.694;10.160;2023-05-10T12:27:59;1.43;;;0.90;;
2474;SDS011;1248;48.694;10.160;2023-05-10T12:30:29;2.43;;;1.37;;
2474;SDS011;1248;48.694;10.160;2023-05-10T12:32:59;1.87;;;0.90;;
2474;SDS011;1248;48.694;10.160;2023-05-10T12:35:29;3.53;;;1.17;;
2474;SDS011;1248;48.694;10.160;2023-05-10T12:37:57;1.90;;;1.10;;
2474;SDS011;1248;48.694;10.160;2023-05-10T12:40:24;1.10;;;0.90;;
2474;SDS011;1248;48.694;10.160;2023-05-10T12:42:51;2.43;;;0.90;;
2474;SDS011;1248;48.694;10.160;2023-05-10T12:45:18;1.30;;;1.00;;
2474;SDS011;1248;48.694;10.160;2023-05-10T12:47:47;1.20;;;0.90;;
2474;SDS011;1248;48.694;10.160;2023-05-10T12:50:14;5.50;;;1.03;;
2474;SDS011;1248;48.694;10.160;2023-05-10T12:52:41;2.60;;;0.90;;
2474;SDS011;1248;48.694;10.160;2023-05-10T12:55:08;3.37;;;1.10;;
2474;SDS011;1248;48.694;10.160;2023-05-10T12:57:35;3.43;;;1.23;;
2474;SDS011;1248;48.694;10.160;2023-05-10T13:00:02;1.90;;;1.00;;
2474;SDS011;1248;48.694;10.160;2023-05-10T13:02:30;2.20;;;1.13;;
2474;SDS011;1248;48.694;10.160;2023-05-10T13:04:59;1.43;;;1.10;;
2474;SDS011;1248;48.694;10.160;2023-05-10T13:07:26;4.93;;;1.30;;
2474;SDS011;1248;48.694;10.160;2023-05-10T13:09:53;2.30;;;1.30;;
2474;SDS011;1248;48.694;10.160;2023-05-10T13:12:20;2.40;;;1.30;;
2474;SDS011;1248;48.694;10.160;2023-05-10T13:14:47;1.60;;;1.10;;
2474;SDS011;1248;48.694;10.160;2023-05-10T13:17:14;2.10;;;1.00;;
2474;SDS011;1248;48.694;10.160;2023-05-10T13:19:41;2.13;;;1.20;;
2474;SDS011;1248;48.694;10.160;2023-05-10T13:22:09;2.50;;;0.97;;
2474;SDS011;1248;48.694;10.160;2023-05-10T13:24:36;1.73;;;1.10;;
2474;SDS011;1248;48.694;10.160;2023-05-10T13:27:03;3.07;;;1.00;;
2474;SDS011;1248;48.694;10.160;2023-05-10T13:29:30;2.50;;;1.23;;
2474;SDS011;1248;48.694;10.160;2023-05-10T13:31:58;2.53;;;1.10;;
2474;SDS011;1248;48.694;10.160;2023-05-10T13:34:25;1.30;;;0.90;;
2474;SDS011;1248;48.694;10.160;2023-05-10T13:36:52;1.13;;;1.03;;
2474;SDS011;1248;48.694;10.160;2023-05-10T13:39:22;5.83;;;1.10;;
2474;SDS011;1248;48.694;10.160;2023-05-10T13:41:49;6.50;;;1.60;;
2474;SDS011;1248;48.694;10.160;2023-05-10T13:44:16;3.63;;;1.40;;
2474;SDS011;1248;48.694;10.160;2023-05-10T13:46:43;1.70;;;1.20;;
2474;SDS011;1248;48.694;10.160;2023-05-10T13:49:10;1.80;;;1.20;;
2474;SDS011;1248;48.694;10.160;2023-05-10T13:51:37;1.50;;;1.20;;
2474;SDS011;1248;48.694;10.160;2023-05-10T13:54:04;1.70;;;1.20;;
2474;SDS011;1248;48.694;10.160;2023-05-10T13:56:32;2.03;;;1.50;;
2474;SDS011;1248;48.694;10.160;2023-05-10T13:59:00;1.77;;;1.20;;
2474;SDS011;1248;48.694;10.160;2023-05-10T14:01:27;1.70;;;1.30;;
2474;SDS011;1248;48.694;10.160;2023-05-10T14:03:54;4.20;;;1.20;;
2474;SDS011;1248;48.694;10.160;2023-05-10T14:06:21;1.20;;;1.10;;
2474;SDS011;1248;48.694;10.160;2023-05-10T14:08:48;1.40;;;1.23;;
2474;SDS011;1248;48.694;10.160;2023-05-10T14:11:15;2.93;;;1.13;;
2474;SDS011;1248;48.694;10.160;2023-05-10T14:13:44;1.20;;;1.10;;
2474;SDS011;1248;48.694;10.160;2023-05-10T14:16:11;2.40;;;1.10;;
2474;SDS011;1248;48.694;10.160;2023-05-10T14:18:40;1.60;;;1.30;;
2474;SDS011;1248;48.694;10.160;2023-05-10T14:21:07;1.20;;;1.10;;
2474;SDS011;1248;48.694;10.160;2023-05-10T14:23:34;4.67;;;1.57;;
2474;SDS011;1248;48.694;10.160;2023-05-10T14:26:01;1.60;;;1.50;;
2474;SDS011;1248;48.694;10.160;2023-05-10T14:28:28;3.80;;;1.40;;
2474;SDS011;1248;48.694;10.160;2023-05-10T14:30:56;3.70;;;1.30;;
2474;SDS011;1248;48.694;10.160;2023-05-10T14:33:24;5.67;;;1.80;;
2474;SDS011;1248;48.694;10.160;2023-05-10T14:35:51;1.70;;;1.20;;
2474;SDS011;1248;48.694;10.160;2023-05-10T14:38:18;1.80;;;1.25;;
2474;SDS011;1248;48.694;10.160;2023-05-10T14:40:45;2.40;;;1.10;;
2474;SDS011;1248;48.694;10.160;2023-05-10T14:43:12;3.30;;;1.30;;
2474;SDS011;1248;48.694;10.160;2023-05-10T14:45:39;2.67;;;1.17;;
2474;SDS011;1248;48.694;10.160;2023-05-10T14:48:08;1.43;;;1.20;;
2474;SDS011;1248;48.694;10.160;2023-05-10T14:50:37;2.17;;;1.47;;
2474;SDS011;1248;48.694;10.160;2023-05-10T14:53:05;2.13;;;1.37;;
2474;SDS011;1248;48.694;10.160;2023-05-10T14:55:32;2.00;;;1.70;;
2474;SDS011;1248;48.694;10.160;2023-05-10T14:58:00;1.97;;;1.40;;
2474;SDS011;1248;48.694;10.160;2023-05-10T15:00:28;1.37;;;1.27;;
2474;SDS011;1248;48.694;10.160;2023-05-10T15:02:56;2.17;;;1.30;;
2474;SDS011;1248;48.694;10.160;2023-05-10T15:05:24;3.10;;;1.37;;
2474;SDS011;1248;48.694;10.160;2023-05-10T15:07:51;2.17;;;1.20;;
2474;SDS011;1248;48.694;10.160;2023-05-10T15:10:18;3.97;;;1.60;;
2474;SDS011;1248;48.694;10.160;2023-05-10T15:12:45;2.60;;;1.90;;
2474;SDS011;1248;48.694;10.160;2023-05-10T15:15:12;3.20;;;1.50;;
2474;SDS011;1248;48.694;10.160;2023-05-10T15:17:39;3.83;;;1.60;;